< Cyclone 197517 1976 Season Cyclone 197602 >
Cyclone 197601 (RAY)
General InformationTrack Information on Google Maps || ResourceGoogle EarthGE AnimationAtom FeedGeoJSON
Detalied Best Track (Time Zone = UTC)
Year Month Day Hour Lat. Long. Pressure (hPa) Wind (kt) Class Image Chart
1975 11 17 00 -6.9 102.2 1008 0 0 -- --
1975 11 17 03 -7.0 101.8 1008 0 0 -- --
1975 11 17 06 -7.1 101.5 1007 0 0 -- --
1975 11 17 09 -7.3 101.0 1007 0 0 -- --
1975 11 17 12 -7.4 100.6 1006 0 0 -- --
1975 11 17 18 -7.8 99.9 1005 0 0 -- --
1975 11 17 21 -7.9 99.7 1004 0 0 -- --
1975 11 18 00 -8.0 99.4 1003 0 0 -- --
1975 11 18 03 -8.1 99.2 1002 0 0 -- --
1975 11 18 06 -8.2 99.0 1001 0 0 -- --
1975 11 18 09 -8.3 98.9 1000 0 0 -- --
1975 11 18 12 -8.4 98.7 999 0 0 -- --
1975 11 18 15 -8.5 98.5 998 0 0 -- --
1975 11 18 18 -8.6 98.3 997 0 0 -- --
1975 11 18 21 -8.7 98.1 996 0 0 -- --
1975 11 19 00 -8.9 98.0 994 0 0 -- --
1975 11 19 03 -9.0 97.9 994 0 0 -- --
1975 11 19 06 -9.1 97.7 993 0 0 -- --
1975 11 19 09 -9.2 97.6 992 0 0 -- --
1975 11 19 12 -9.3 97.4 991 0 0 -- --
1975 11 19 15 -9.4 97.3 991 0 0 -- --
1975 11 19 18 -9.5 97.1 990 0 0 -- --
1975 11 19 21 -9.6 97.0 989 0 0 -- --
1975 11 20 00 -9.7 96.8 988 0 0 -- --
1975 11 20 03 -9.7 96.7 987 0 0 -- --
1975 11 20 06 -9.8 96.5 986 0 0 -- --
1975 11 20 09 -9.9 96.3 986 0 0 -- --
1975 11 20 12 -10.0 96.0 985 0 0 -- --
1975 11 20 15 -10.1 95.7 984 0 0 -- --
1975 11 20 18 -10.1 95.3 983 0 0 -- --
1975 11 20 21 -10.1 95.0 982 0 0 -- --
1975 11 21 00 -10.1 94.7 981 0 0 -- --
1975 11 21 03 -10.2 94.6 980 0 0 -- --
1975 11 21 06 -10.4 94.3 979 0 0 -- --
1975 11 21 09 -10.6 94.1 978 0 0 -- --
1975 11 21 12 -10.8 94.0 977 0 0 -- --
1975 11 21 15 -10.9 93.8 976 0 0 -- --
1975 11 21 18 -11.1 93.6 975 0 0 -- --
1975 11 21 21 -11.5 93.5 974 0 0 -- --
1975 11 22 00 -11.7 93.4 973 0 0 -- --
1975 11 22 03 -12.0 93.2 973 0 0 -- --
1975 11 22 06 -12.3 93.1 974 0 0 -- --
1975 11 22 09 -12.6 92.8 975 0 0 -- --
1975 11 22 12 -12.9 92.4 977 0 0 -- --
1975 11 22 15 -13.4 91.9 978 0 0 -- --
1975 11 22 18 -13.9 91.4 979 0 0 -- --
1975 11 22 21 -14.4 90.9 980 0 0 -- --
1975 11 23 00 -15.0 90.5 981 0 0 -- --
1975 11 23 03 -15.4 90.2 983 0 0 -- --
1975 11 23 06 -15.9 90.0 983 0 0 -- --
1975 11 23 09 -16.4 89.5 985 0 0 -- --
1975 11 23 12 -16.9 89.0 989 0 0 -- --
1975 11 23 15 -17.5 88.7 993 0 0 -- --
1975 11 23 18 -18.1 88.5 995 0 0 -- --
1975 11 23 21 -18.8 88.3 997 0 0 -- --
1975 11 24 00 -19.3 88.0 999 0 0 -- --
1975 11 24 03 -20.0 88.2 1000 0 0 -- --
1975 11 24 06 -20.7 88.6 1000 0 0 -- --
1975 11 24 09 -21.1 89.0 1001 0 0 -- --
1975 11 24 12 -21.8 89.8 1004 0 0 -- --
1975 11 24 15 -22.1 90.1 1006 0 0 -- --
1975 11 24 18 -22.7 90.8 1006 0 0 -- --
1975 11 24 21 -23.1 91.4 1005 0 0 -- --
1975 11 25 00 -23.6 92.0 1006 0 0 -- --
< Cyclone 197517 1976 Season Cyclone 197602 >

Help